sensor_id;sensor_type;location;lat;lon;timestamp;P1;durP1;ratioP1;P2;durP2;ratioP2
5650;SDS011;40241;52.684;9.758;2024-02-26T00:00:05;1.87;;;1.10;;
5650;SDS011;40241;52.684;9.758;2024-02-26T00:02:34;1.40;;;1.30;;
5650;SDS011;40241;52.684;9.758;2024-02-26T00:05:03;1.30;;;1.20;;
5650;SDS011;40241;52.684;9.758;2024-02-26T00:07:32;1.50;;;1.50;;
5650;SDS011;40241;52.684;9.758;2024-02-26T00:09:58;1.33;;;1.23;;
5650;SDS011;40241;52.684;9.758;2024-02-26T00:12:23;1.40;;;1.00;;
5650;SDS011;40241;52.684;9.758;2024-02-26T00:14:49;1.20;;;1.20;;
5650;SDS011;40241;52.684;9.758;2024-02-26T00:17:14;1.40;;;1.30;;
5650;SDS011;40241;52.684;9.758;2024-02-26T00:19:40;1.70;;;1.60;;
5650;SDS011;40241;52.684;9.758;2024-02-26T00:22:06;1.63;;;1.50;;
5650;SDS011;40241;52.684;9.758;2024-02-26T00:24:31;1.63;;;1.53;;
5650;SDS011;40241;52.684;9.758;2024-02-26T00:26:56;1.97;;;1.57;;
5650;SDS011;40241;52.684;9.758;2024-02-26T00:29:22;2.60;;;1.40;;
5650;SDS011;40241;52.684;9.758;2024-02-26T00:31:48;1.90;;;1.80;;
5650;SDS011;40241;52.684;9.758;2024-02-26T00:34:14;2.37;;;2.00;;
5650;SDS011;40241;52.684;9.758;2024-02-26T00:36:39;2.37;;;2.17;;
5650;SDS011;40241;52.684;9.758;2024-02-26T00:39:04;1.57;;;1.47;;
5650;SDS011;40241;52.684;9.758;2024-02-26T00:41:30;1.77;;;1.67;;
5650;SDS011;40241;52.684;9.758;2024-02-26T00:43:55;2.10;;;1.70;;
5650;SDS011;40241;52.684;9.758;2024-02-26T00:46:20;2.30;;;1.37;;
5650;SDS011;40241;52.684;9.758;2024-02-26T00:48:45;1.73;;;1.60;;
5650;SDS011;40241;52.684;9.758;2024-02-26T00:51:11;2.20;;;2.00;;
5650;SDS011;40241;52.684;9.758;2024-02-26T00:53:36;1.70;;;1.60;;
5650;SDS011;40241;52.684;9.758;2024-02-26T00:56:01;1.70;;;1.60;;
5650;SDS011;40241;52.684;9.758;2024-02-26T00:58:27;1.50;;;1.40;;
5650;SDS011;40241;52.684;9.758;2024-02-26T01:00:52;2.23;;;1.87;;
5650;SDS011;40241;52.684;9.758;2024-02-26T01:03:18;2.57;;;1.90;;
5650;SDS011;40241;52.684;9.758;2024-02-26T01:05:44;2.37;;;2.17;;
5650;SDS011;40241;52.684;9.758;2024-02-26T01:08:09;2.97;;;2.77;;
5650;SDS011;40241;52.684;9.758;2024-02-26T01:10:34;2.00;;;1.80;;
5650;SDS011;40241;52.684;9.758;2024-02-26T01:13:00;2.20;;;1.93;;
5650;SDS011;40241;52.684;9.758;2024-02-26T01:15:26;3.90;;;3.60;;
5650;SDS011;40241;52.684;9.758;2024-02-26T01:17:51;2.20;;;2.10;;
5650;SDS011;40241;52.684;9.758;2024-02-26T01:20:17;1.70;;;1.60;;
5650;SDS011;40241;52.684;9.758;2024-02-26T01:22:43;1.80;;;1.70;;
5650;SDS011;40241;52.684;9.758;2024-02-26T01:25:08;1.70;;;1.60;;
5650;SDS011;40241;52.684;9.758;2024-02-26T01:27:34;2.13;;;1.77;;
5650;SDS011;40241;52.684;9.758;2024-02-26T01:30:02;1.40;;;1.30;;
5650;SDS011;40241;52.684;9.758;2024-02-26T01:32:31;1.47;;;1.37;;
5650;SDS011;40241;52.684;9.758;2024-02-26T01:34:56;1.43;;;1.33;;
5650;SDS011;40241;52.684;9.758;2024-02-26T01:37:22;1.93;;;1.83;;
5650;SDS011;40241;52.684;9.758;2024-02-26T01:39:47;0.97;;;0.97;;
5650;SDS011;40241;52.684;9.758;2024-02-26T01:42:13;1.57;;;1.47;;
5650;SDS011;40241;52.684;9.758;2024-02-26T01:44:38;1.20;;;1.10;;
5650;SDS011;40241;52.684;9.758;2024-02-26T01:47:04;1.47;;;1.37;;
5650;SDS011;40241;52.684;9.758;2024-02-26T01:49:30;1.30;;;1.20;;
5650;SDS011;40241;52.684;9.758;2024-02-26T01:51:56;1.77;;;1.67;;
5650;SDS011;40241;52.684;9.758;2024-02-26T01:54:23;1.83;;;1.73;;
5650;SDS011;40241;52.684;9.758;2024-02-26T01:56:48;0.97;;;0.90;;
5650;SDS011;40241;52.684;9.758;2024-02-26T01:59:15;1.63;;;1.27;;
5650;SDS011;40241;52.684;9.758;2024-02-26T02:01:42;1.27;;;1.10;;
5650;SDS011;40241;52.684;9.758;2024-02-26T02:04:10;1.63;;;1.53;;
5650;SDS011;40241;52.684;9.758;2024-02-26T02:06:36;2.97;;;2.77;;
5650;SDS011;40241;52.684;9.758;2024-02-26T02:09:03;1.60;;;1.50;;
5650;SDS011;40241;52.684;9.758;2024-02-26T02:11:32;1.30;;;1.20;;
5650;SDS011;40241;52.684;9.758;2024-02-26T02:13:58;1.10;;;1.10;;
5650;SDS011;40241;52.684;9.758;2024-02-26T02:16:23;1.30;;;1.30;;
5650;SDS011;40241;52.684;9.758;2024-02-26T02:18:49;1.37;;;1.37;;
5650;SDS011;40241;52.684;9.758;2024-02-26T02:21:14;4.70;;;1.53;;
5650;SDS011;40241;52.684;9.758;2024-02-26T02:23:40;1.50;;;1.33;;
5650;SDS011;40241;52.684;9.758;2024-02-26T02:26:07;1.60;;;1.50;;
5650;SDS011;40241;52.684;9.758;2024-02-26T02:28:32;1.07;;;0.90;;
5650;SDS011;40241;52.684;9.758;2024-02-26T02:30:58;1.23;;;1.13;;
5650;SDS011;40241;52.684;9.758;2024-02-26T02:33:24;1.40;;;1.30;;
5650;SDS011;40241;52.684;9.758;2024-02-26T02:35:51;1.40;;;0.90;;
5650;SDS011;40241;52.684;9.758;2024-02-26T02:38:19;3.83;;;1.20;;
5650;SDS011;40241;52.684;9.758;2024-02-26T02:40:44;1.23;;;1.20;;
5650;SDS011;40241;52.684;9.758;2024-02-26T02:43:10;1.80;;;1.70;;
5650;SDS011;40241;52.684;9.758;2024-02-26T02:45:35;1.77;;;1.67;;
5650;SDS011;40241;52.684;9.758;2024-02-26T02:48:00;1.40;;;1.30;;
5650;SDS011;40241;52.684;9.758;2024-02-26T02:50:26;1.27;;;1.27;;
5650;SDS011;40241;52.684;9.758;2024-02-26T02:52:51;1.63;;;1.53;;
5650;SDS011;40241;52.684;9.758;2024-02-26T02:55:16;2.43;;;2.33;;
5650;SDS011;40241;52.684;9.758;2024-02-26T02:57:43;1.70;;;1.60;;
5650;SDS011;40241;52.684;9.758;2024-02-26T03:00:09;1.73;;;1.63;;
5650;SDS011;40241;52.684;9.758;2024-02-26T03:02:35;1.83;;;1.73;;
5650;SDS011;40241;52.684;9.758;2024-02-26T03:05:01;1.80;;;1.70;;
5650;SDS011;40241;52.684;9.758;2024-02-26T03:07:27;2.10;;;2.00;;
5650;SDS011;40241;52.684;9.758;2024-02-26T03:09:53;2.60;;;1.93;;
5650;SDS011;40241;52.684;9.758;2024-02-26T03:12:18;1.70;;;1.60;;
5650;SDS011;40241;52.684;9.758;2024-02-26T03:14:43;1.20;;;1.13;;
5650;SDS011;40241;52.684;9.758;2024-02-26T03:17:09;1.90;;;1.80;;
5650;SDS011;40241;52.684;9.758;2024-02-26T03:19:34;2.70;;;2.00;;
5650;SDS011;40241;52.684;9.758;2024-02-26T03:21:59;1.87;;;1.77;;
5650;SDS011;40241;52.684;9.758;2024-02-26T03:24:25;1.60;;;1.50;;
5650;SDS011;40241;52.684;9.758;2024-02-26T03:26:50;1.10;;;1.07;;
5650;SDS011;40241;52.684;9.758;2024-02-26T03:29:17;1.07;;;1.07;;
5650;SDS011;40241;52.684;9.758;2024-02-26T03:31:42;1.60;;;1.50;;
5650;SDS011;40241;52.684;9.758;2024-02-26T03:34:07;2.53;;;1.57;;
5650;SDS011;40241;52.684;9.758;2024-02-26T03:36:33;1.30;;;1.20;;
5650;SDS011;40241;52.684;9.758;2024-02-26T03:38:58;1.00;;;1.00;;
5650;SDS011;40241;52.684;9.758;2024-02-26T03:41:24;1.17;;;1.10;;
5650;SDS011;40241;52.684;9.758;2024-02-26T03:43:49;1.30;;;1.20;;
5650;SDS011;40241;52.684;9.758;2024-02-26T03:46:15;1.30;;;1.20;;
5650;SDS011;40241;52.684;9.758;2024-02-26T03:48:41;6.10;;;1.63;;
5650;SDS011;40241;52.684;9.758;2024-02-26T03:51:06;1.20;;;1.10;;
5650;SDS011;40241;52.684;9.758;2024-02-26T03:53:33;2.70;;;1.43;;
5650;SDS011;40241;52.684;9.758;2024-02-26T03:56:02;1.63;;;1.53;;
5650;SDS011;40241;52.684;9.758;2024-02-26T03:58:28;0.90;;;0.90;;
5650;SDS011;40241;52.684;9.758;2024-02-26T04:00:54;1.07;;;1.07;;
5650;SDS011;40241;52.684;9.758;2024-02-26T04:03:19;1.50;;;1.40;;
5650;SDS011;40241;52.684;9.758;2024-02-26T04:05:44;1.30;;;1.17;;
5650;SDS011;40241;52.684;9.758;2024-02-26T04:08:10;0.97;;;0.97;;
5650;SDS011;40241;52.684;9.758;2024-02-26T04:10:35;1.40;;;1.30;;
5650;SDS011;40241;52.684;9.758;2024-02-26T04:13:03;1.40;;;1.30;;
5650;SDS011;40241;52.684;9.758;2024-02-26T04:15:29;0.93;;;0.90;;
5650;SDS011;40241;52.684;9.758;2024-02-26T04:17:55;1.93;;;1.57;;
5650;SDS011;40241;52.684;9.758;2024-02-26T04:20:20;1.07;;;1.07;;
5650;SDS011;40241;52.684;9.758;2024-02-26T04:22:46;1.40;;;1.30;;
5650;SDS011;40241;52.684;9.758;2024-02-26T04:25:11;1.20;;;1.13;;
5650;SDS011;40241;52.684;9.758;2024-02-26T04:27:37;1.33;;;1.23;;
5650;SDS011;40241;52.684;9.758;2024-02-26T04:30:03;1.27;;;1.20;;
5650;SDS011;40241;52.684;9.758;2024-02-26T04:32:30;1.33;;;1.23;;
5650;SDS011;40241;52.684;9.758;2024-02-26T04:34:55;1.50;;;1.40;;
5650;SDS011;40241;52.684;9.758;2024-02-26T04:37:21;1.27;;;1.20;;
5650;SDS011;40241;52.684;9.758;2024-02-26T04:39:46;1.40;;;1.30;;
5650;SDS011;40241;52.684;9.758;2024-02-26T04:42:11;1.27;;;1.17;;
5650;SDS011;40241;52.684;9.758;2024-02-26T04:44:37;1.20;;;1.10;;
5650;SDS011;40241;52.684;9.758;2024-02-26T04:47:02;1.23;;;1.13;;
5650;SDS011;40241;52.684;9.758;2024-02-26T04:49:27;1.37;;;1.27;;
5650;SDS011;40241;52.684;9.758;2024-02-26T04:51:53;1.03;;;1.03;;
5650;SDS011;40241;52.684;9.758;2024-02-26T04:54:19;1.17;;;1.17;;
5650;SDS011;40241;52.684;9.758;2024-02-26T04:56:44;1.60;;;1.50;;
5650;SDS011;40241;52.684;9.758;2024-02-26T04:59:09;1.53;;;1.43;;
5650;SDS011;40241;52.684;9.758;2024-02-26T05:01:35;1.10;;;1.10;;
5650;SDS011;40241;52.684;9.758;2024-02-26T05:04:01;1.40;;;1.40;;
5650;SDS011;40241;52.684;9.758;2024-02-26T05:06:28;1.30;;;1.20;;
5650;SDS011;40241;52.684;9.758;2024-02-26T05:08:53;1.20;;;1.10;;
5650;SDS011;40241;52.684;9.758;2024-02-26T05:11:19;1.20;;;1.20;;
5650;SDS011;40241;52.684;9.758;2024-02-26T05:13:44;1.00;;;1.00;;
5650;SDS011;40241;52.684;9.758;2024-02-26T05:16:10;1.70;;;1.60;;
5650;SDS011;40241;52.684;9.758;2024-02-26T05:18:36;1.30;;;1.20;;
5650;SDS011;40241;52.684;9.758;2024-02-26T05:21:01;1.20;;;1.10;;
5650;SDS011;40241;52.684;9.758;2024-02-26T05:23:28;1.30;;;1.20;;
5650;SDS011;40241;52.684;9.758;2024-02-26T05:25:53;1.10;;;1.07;;
5650;SDS011;40241;52.684;9.758;2024-02-26T05:28:19;2.80;;;0.97;;
5650;SDS011;40241;52.684;9.758;2024-02-26T05:30:45;1.30;;;1.07;;
5650;SDS011;40241;52.684;9.758;2024-02-26T05:33:11;1.27;;;1.23;;
5650;SDS011;40241;52.684;9.758;2024-02-26T05:35:37;1.20;;;1.20;;
5650;SDS011;40241;52.684;9.758;2024-02-26T05:38:02;1.53;;;1.43;;
5650;SDS011;40241;52.684;9.758;2024-02-26T05:40:28;1.00;;;1.00;;
5650;SDS011;40241;52.684;9.758;2024-02-26T05:42:53;1.10;;;1.10;;
5650;SDS011;40241;52.684;9.758;2024-02-26T05:45:19;0.90;;;0.90;;
5650;SDS011;40241;52.684;9.758;2024-02-26T05:47:44;1.30;;;1.20;;
5650;SDS011;40241;52.684;9.758;2024-02-26T05:50:09;1.70;;;1.40;;
5650;SDS011;40241;52.684;9.758;2024-02-26T05:52:36;1.87;;;1.50;;
5650;SDS011;40241;52.684;9.758;2024-02-26T05:55:03;0.80;;;0.80;;
5650;SDS011;40241;52.684;9.758;2024-02-26T05:57:29;1.20;;;1.20;;
5650;SDS011;40241;52.684;9.758;2024-02-26T05:59:54;0.80;;;0.80;;
5650;SDS011;40241;52.684;9.758;2024-02-26T06:02:19;0.90;;;0.90;;
5650;SDS011;40241;52.684;9.758;2024-02-26T06:04:45;0.93;;;0.93;;
5650;SDS011;40241;52.684;9.758;2024-02-26T06:07:11;1.20;;;1.20;;
5650;SDS011;40241;52.684;9.758;2024-02-26T06:09:36;8.10;;;3.23;;
5650;SDS011;40241;52.684;9.758;2024-02-26T06:12:02;3.93;;;3.00;;
5650;SDS011;40241;52.684;9.758;2024-02-26T06:14:27;1.83;;;1.60;;
5650;SDS011;40241;52.684;9.758;2024-02-26T06:16:52;0.87;;;0.87;;
5650;SDS011;40241;52.684;9.758;2024-02-26T06:19:18;1.10;;;1.00;;
5650;SDS011;40241;52.684;9.758;2024-02-26T06:21:43;0.93;;;0.87;;
5650;SDS011;40241;52.684;9.758;2024-02-26T06:24:08;1.10;;;1.00;;
5650;SDS011;40241;52.684;9.758;2024-02-26T06:26:34;2.97;;;1.03;;
5650;SDS011;40241;52.684;9.758;2024-02-26T06:28:59;1.30;;;1.20;;
5650;SDS011;40241;52.684;9.758;2024-02-26T06:31:24;1.20;;;1.10;;
5650;SDS011;40241;52.684;9.758;2024-02-26T06:33:52;1.10;;;1.10;;
5650;SDS011;40241;52.684;9.758;2024-02-26T06:36:18;1.00;;;1.00;;
5650;SDS011;40241;52.684;9.758;2024-02-26T06:38:43;1.90;;;1.40;;
5650;SDS011;40241;52.684;9.758;2024-02-26T06:41:08;4.77;;;2.60;;
5650;SDS011;40241;52.684;9.758;2024-02-26T06:43:34;2.70;;;2.30;;
5650;SDS011;40241;52.684;9.758;2024-02-26T06:45:59;2.10;;;1.93;;
5650;SDS011;40241;52.684;9.758;2024-02-26T06:48:25;2.03;;;1.90;;
5650;SDS011;40241;52.684;9.758;2024-02-26T06:50:50;1.77;;;1.67;;
5650;SDS011;40241;52.684;9.758;2024-02-26T06:53:15;2.70;;;1.10;;
5650;SDS011;40241;52.684;9.758;2024-02-26T06:55:41;1.50;;;1.40;;
5650;SDS011;40241;52.684;9.758;2024-02-26T06:58:07;4.83;;;1.37;;
5650;SDS011;40241;52.684;9.758;2024-02-26T07:00:33;1.50;;;1.40;;
5650;SDS011;40241;52.684;9.758;2024-02-26T07:02:58;1.30;;;1.20;;
5650;SDS011;40241;52.684;9.758;2024-02-26T07:05:24;1.20;;;1.20;;
5650;SDS011;40241;52.684;9.758;2024-02-26T07:07:49;2.03;;;1.40;;
5650;SDS011;40241;52.684;9.758;2024-02-26T07:10:14;1.90;;;1.80;;
5650;SDS011;40241;52.684;9.758;2024-02-26T07:12:40;1.60;;;1.50;;
5650;SDS011;40241;52.684;9.758;2024-02-26T07:15:05;1.80;;;1.40;;
5650;SDS011;40241;52.684;9.758;2024-02-26T07:17:33;1.60;;;1.50;;
5650;SDS011;40241;52.684;9.758;2024-02-26T07:19:59;1.30;;;1.20;;
5650;SDS011;40241;52.684;9.758;2024-02-26T07:22:24;1.20;;;1.17;;
5650;SDS011;40241;52.684;9.758;2024-02-26T07:24:50;1.57;;;1.47;;
5650;SDS011;40241;52.684;9.758;2024-02-26T07:27:15;1.53;;;1.43;;
5650;SDS011;40241;52.684;9.758;2024-02-26T07:29:42;1.70;;;1.60;;
5650;SDS011;40241;52.684;9.758;2024-02-26T07:32:08;2.00;;;1.50;;
5650;SDS011;40241;52.684;9.758;2024-02-26T07:34:33;1.03;;;1.03;;
5650;SDS011;40241;52.684;9.758;2024-02-26T07:36:59;1.63;;;1.53;;
5650;SDS011;40241;52.684;9.758;2024-02-26T07:39:24;1.17;;;1.17;;
5650;SDS011;40241;52.684;9.758;2024-02-26T07:41:49;1.83;;;1.73;;
5650;SDS011;40241;52.684;9.758;2024-02-26T07:44:17;1.40;;;1.30;;
5650;SDS011;40241;52.684;9.758;2024-02-26T07:46:43;1.80;;;1.60;;
5650;SDS011;40241;52.684;9.758;2024-02-26T07:49:08;1.87;;;1.70;;
5650;SDS011;40241;52.684;9.758;2024-02-26T07:51:34;2.33;;;1.40;;
5650;SDS011;40241;52.684;9.758;2024-02-26T07:53:59;2.07;;;1.73;;
5650;SDS011;40241;52.684;9.758;2024-02-26T07:56:25;1.80;;;1.70;;
5650;SDS011;40241;52.684;9.758;2024-02-26T07:58:51;1.90;;;1.80;;
5650;SDS011;40241;52.684;9.758;2024-02-26T08:01:16;1.80;;;1.70;;
5650;SDS011;40241;52.684;9.758;2024-02-26T08:03:42;2.20;;;2.00;;
5650;SDS011;40241;52.684;9.758;2024-02-26T08:06:07;1.70;;;1.60;;
5650;SDS011;40241;52.684;9.758;2024-02-26T08:08:33;1.70;;;1.60;;
5650;SDS011;40241;52.684;9.758;2024-02-26T08:10:59;2.37;;;2.10;;
5650;SDS011;40241;52.684;9.758;2024-02-26T08:13:24;1.70;;;1.60;;
5650;SDS011;40241;52.684;9.758;2024-02-26T08:15:49;2.83;;;1.60;;
5650;SDS011;40241;52.684;9.758;2024-02-26T08:18:15;1.17;;;1.17;;
5650;SDS011;40241;52.684;9.758;2024-02-26T08:20:41;1.30;;;1.20;;
5650;SDS011;40241;52.684;9.758;2024-02-26T08:23:06;2.40;;;1.40;;
5650;SDS011;40241;52.684;9.758;2024-02-26T08:25:31;1.73;;;1.60;;
5650;SDS011;40241;52.684;9.758;2024-02-26T08:27:57;1.67;;;1.57;;
5650;SDS011;40241;52.684;9.758;2024-02-26T08:30:22;1.23;;;1.13;;
5650;SDS011;40241;52.684;9.758;2024-02-26T08:32:47;1.50;;;1.40;;
5650;SDS011;40241;52.684;9.758;2024-02-26T08:35:13;1.20;;;1.10;;
5650;SDS011;40241;52.684;9.758;2024-02-26T08:37:38;1.37;;;1.30;;
5650;SDS011;40241;52.684;9.758;2024-02-26T08:40:04;1.50;;;1.50;;
5650;SDS011;40241;52.684;9.758;2024-02-26T08:42:31;1.97;;;1.73;;
5650;SDS011;40241;52.684;9.758;2024-02-26T08:44:56;2.30;;;1.47;;
5650;SDS011;40241;52.684;9.758;2024-02-26T08:47:23;1.13;;;1.13;;
5650;SDS011;40241;52.684;9.758;2024-02-26T08:49:49;1.40;;;1.00;;
5650;SDS011;40241;52.684;9.758;2024-02-26T08:52:14;1.47;;;1.47;;
5650;SDS011;40241;52.684;9.758;2024-02-26T08:54:40;3.30;;;1.47;;
5650;SDS011;40241;52.684;9.758;2024-02-26T08:57:05;2.57;;;1.70;;
5650;SDS011;40241;52.684;9.758;2024-02-26T08:59:31;1.37;;;1.37;;
5650;SDS011;40241;52.684;9.758;2024-02-26T09:01:56;2.50;;;0.90;;
5650;SDS011;40241;52.684;9.758;2024-02-26T09:04:22;1.30;;;1.20;;
5650;SDS011;40241;52.684;9.758;2024-02-26T09:06:47;1.13;;;1.13;;
5650;SDS011;40241;52.684;9.758;2024-02-26T09:09:12;1.80;;;1.57;;
5650;SDS011;40241;52.684;9.758;2024-02-26T09:11:38;4.50;;;1.40;;
5650;SDS011;40241;52.684;9.758;2024-02-26T09:14:03;1.93;;;1.27;;
5650;SDS011;40241;52.684;9.758;2024-02-26T09:16:29;0.87;;;0.87;;
5650;SDS011;40241;52.684;9.758;2024-02-26T09:18:57;1.63;;;1.53;;
5650;SDS011;40241;52.684;9.758;2024-02-26T09:21:22;1.20;;;1.10;;
5650;SDS011;40241;52.684;9.758;2024-02-26T09:23:49;0.90;;;0.90;;
5650;SDS011;40241;52.684;9.758;2024-02-26T09:26:15;1.30;;;1.10;;
5650;SDS011;40241;52.684;9.758;2024-02-26T09:28:41;1.07;;;0.97;;
5650;SDS011;40241;52.684;9.758;2024-02-26T09:31:06;1.23;;;1.13;;
5650;SDS011;40241;52.684;9.758;2024-02-26T09:33:32;1.27;;;1.10;;
5650;SDS011;40241;52.684;9.758;2024-02-26T09:35:58;1.03;;;1.03;;
5650;SDS011;40241;52.684;9.758;2024-02-26T09:38:23;1.10;;;1.10;;
5650;SDS011;40241;52.684;9.758;2024-02-26T09:40:49;1.80;;;1.13;;
5650;SDS011;40241;52.684;9.758;2024-02-26T09:43:14;1.13;;;0.90;;
5650;SDS011;40241;52.684;9.758;2024-02-26T09:45:42;1.57;;;0.80;;
5650;SDS011;40241;52.684;9.758;2024-02-26T09:48:08;1.30;;;1.20;;
5650;SDS011;40241;52.684;9.758;2024-02-26T09:50:36;1.00;;;0.90;;
5650;SDS011;40241;52.684;9.758;2024-02-26T09:53:02;1.10;;;1.00;;
5650;SDS011;40241;52.684;9.758;2024-02-26T09:55:30;0.70;;;0.70;;
5650;SDS011;40241;52.684;9.758;2024-02-26T09:57:55;1.00;;;0.73;;
5650;SDS011;40241;52.684;9.758;2024-02-26T10:00:22;1.40;;;0.93;;
5650;SDS011;40241;52.684;9.758;2024-02-26T10:02:51;1.20;;;1.10;;
5650;SDS011;40241;52.684;9.758;2024-02-26T10:05:18;0.93;;;0.93;;
5650;SDS011;40241;52.684;9.758;2024-02-26T10:07:48;0.60;;;0.60;;
5650;SDS011;40241;52.684;9.758;2024-02-26T10:10:14;1.20;;;1.10;;
5650;SDS011;40241;52.684;9.758;2024-02-26T10:12:40;2.10;;;1.00;;
5650;SDS011;40241;52.684;9.758;2024-02-26T10:15:05;0.83;;;0.83;;
5650;SDS011;40241;52.684;9.758;2024-02-26T10:17:31;1.00;;;1.00;;
5650;SDS011;40241;52.684;9.758;2024-02-26T10:20:10;0.70;;;0.67;;
5650;SDS011;40241;52.684;9.758;2024-02-26T10:22:42;1.63;;;0.90;;
5650;SDS011;40241;52.684;9.758;2024-02-26T10:25:08;1.17;;;1.00;;
5650;SDS011;40241;52.684;9.758;2024-02-26T10:27:34;0.93;;;0.90;;
5650;SDS011;40241;52.684;9.758;2024-02-26T10:32:48;1.20;;;1.20;;
5650;SDS011;40241;52.684;9.758;2024-02-26T10:35:14;0.80;;;0.80;;
5650;SDS011;40241;52.684;9.758;2024-02-26T10:37:41;2.80;;;1.23;;
5650;SDS011;40241;52.684;9.758;2024-02-26T10:40:16;0.80;;;0.80;;
5650;SDS011;40241;52.684;9.758;2024-02-26T10:42:42;0.90;;;0.73;;
5650;SDS011;40241;52.684;9.758;2024-02-26T10:45:08;0.87;;;0.80;;
5650;SDS011;40241;52.684;9.758;2024-02-26T10:47:35;1.83;;;1.20;;
5650;SDS011;40241;52.684;9.758;2024-02-26T10:50:01;1.20;;;1.10;;
5650;SDS011;40241;52.684;9.758;2024-02-26T10:52:31;0.80;;;0.80;;
5650;SDS011;40241;52.684;9.758;2024-02-26T10:54:59;1.00;;;0.90;;
5650;SDS011;40241;52.684;9.758;2024-02-26T10:57:27;1.40;;;1.30;;
5650;SDS011;40241;52.684;9.758;2024-02-26T10:59:58;0.90;;;0.90;;
5650;SDS011;40241;52.684;9.758;2024-02-26T11:02:25;0.97;;;0.97;;
5650;SDS011;40241;52.684;9.758;2024-02-26T11:04:51;1.00;;;0.90;;
5650;SDS011;40241;52.684;9.758;2024-02-26T11:07:16;2.30;;;0.80;;
5650;SDS011;40241;52.684;9.758;2024-02-26T11:09:44;1.20;;;1.13;;
5650;SDS011;40241;52.684;9.758;2024-02-26T11:12:16;1.10;;;1.00;;
5650;SDS011;40241;52.684;9.758;2024-02-26T11:14:43;1.00;;;0.97;;
5650;SDS011;40241;52.684;9.758;2024-02-26T11:17:10;1.10;;;0.63;;
5650;SDS011;40241;52.684;9.758;2024-02-26T11:19:37;0.60;;;0.60;;
5650;SDS011;40241;52.684;9.758;2024-02-26T11:22:03;1.10;;;1.00;;
5650;SDS011;40241;52.684;9.758;2024-02-26T11:24:28;1.33;;;0.93;;
5650;SDS011;40241;52.684;9.758;2024-02-26T11:26:55;0.80;;;0.80;;
5650;SDS011;40241;52.684;9.758;2024-02-26T11:29:26;0.93;;;0.83;;
5650;SDS011;40241;52.684;9.758;2024-02-26T11:31:56;1.07;;;1.00;;
5650;SDS011;40241;52.684;9.758;2024-02-26T11:34:24;1.33;;;1.23;;
5650;SDS011;40241;52.684;9.758;2024-02-26T11:36:50;1.40;;;0.90;;
5650;SDS011;40241;52.684;9.758;2024-02-26T11:39:16;0.90;;;0.90;;
5650;SDS011;40241;52.684;9.758;2024-02-26T11:41:42;1.03;;;0.80;;
5650;SDS011;40241;52.684;9.758;2024-02-26T11:44:08;1.33;;;0.80;;
5650;SDS011;40241;52.684;9.758;2024-02-26T11:46:38;0.80;;;0.80;;
5650;SDS011;40241;52.684;9.758;2024-02-26T11:51:52;1.33;;;0.80;;
5650;SDS011;40241;52.684;9.758;2024-02-26T11:59:53;1.23;;;0.90;;
5650;SDS011;40241;52.684;9.758;2024-02-26T12:05:22;2.10;;;0.50;;
5650;SDS011;40241;52.684;9.758;2024-02-26T12:07:55;1.67;;;0.60;;
5650;SDS011;40241;52.684;9.758;2024-02-26T12:12:59;0.97;;;0.63;;
5650;SDS011;40241;52.684;9.758;2024-02-26T12:15:33;1.00;;;0.67;;
5650;SDS011;40241;52.684;9.758;2024-02-26T12:18:01;0.60;;;0.60;;
5650;SDS011;40241;52.684;9.758;2024-02-26T12:20:28;0.90;;;0.70;;
5650;SDS011;40241;52.684;9.758;2024-02-26T12:22:53;0.80;;;0.70;;
5650;SDS011;40241;52.684;9.758;2024-02-26T12:25:22;0.63;;;0.63;;
5650;SDS011;40241;52.684;9.758;2024-02-26T12:27:49;0.80;;;0.80;;
5650;SDS011;40241;52.684;9.758;2024-02-26T12:30:14;0.63;;;0.60;;
5650;SDS011;40241;52.684;9.758;2024-02-26T12:32:39;1.03;;;0.93;;
5650;SDS011;40241;52.684;9.758;2024-02-26T12:35:05;0.80;;;0.47;;
5650;SDS011;40241;52.684;9.758;2024-02-26T12:37:31;1.13;;;0.70;;
5650;SDS011;40241;52.684;9.758;2024-02-26T12:39:57;2.50;;;0.60;;
5650;SDS011;40241;52.684;9.758;2024-02-26T12:42:22;0.63;;;0.63;;
5650;SDS011;40241;52.684;9.758;2024-02-26T12:44:49;0.60;;;0.60;;
5650;SDS011;40241;52.684;9.758;2024-02-26T12:47:15;0.50;;;0.50;;
5650;SDS011;40241;52.684;9.758;2024-02-26T12:49:42;0.50;;;0.50;;
5650;SDS011;40241;52.684;9.758;2024-02-26T12:52:09;0.60;;;0.60;;
5650;SDS011;40241;52.684;9.758;2024-02-26T12:54:35;0.60;;;0.50;;
5650;SDS011;40241;52.684;9.758;2024-02-26T12:57:04;0.53;;;0.53;;
5650;SDS011;40241;52.684;9.758;2024-02-26T12:59:31;0.80;;;0.60;;
5650;SDS011;40241;52.684;9.758;2024-02-26T13:01:58;0.60;;;0.60;;
5650;SDS011;40241;52.684;9.758;2024-02-26T13:04:24;0.90;;;0.70;;
5650;SDS011;40241;52.684;9.758;2024-02-26T13:06:52;0.70;;;0.60;;
5650;SDS011;40241;52.684;9.758;2024-02-26T13:09:18;0.80;;;0.80;;
5650;SDS011;40241;52.684;9.758;2024-02-26T13:11:44;0.50;;;0.50;;
5650;SDS011;40241;52.684;9.758;2024-02-26T13:14:19;0.93;;;0.60;;
5650;SDS011;40241;52.684;9.758;2024-02-26T13:16:45;0.70;;;0.70;;
5650;SDS011;40241;52.684;9.758;2024-02-26T13:19:19;0.60;;;0.50;;
5650;SDS011;40241;52.684;9.758;2024-02-26T13:21:44;0.60;;;0.60;;
5650;SDS011;40241;52.684;9.758;2024-02-26T13:24:12;0.50;;;0.50;;
5650;SDS011;40241;52.684;9.758;2024-02-26T13:26:38;0.50;;;0.40;;
5650;SDS011;40241;52.684;9.758;2024-02-26T13:29:03;2.50;;;0.40;;
5650;SDS011;40241;52.684;9.758;2024-02-26T13:31:28;0.50;;;0.50;;
5650;SDS011;40241;52.684;9.758;2024-02-26T13:33:54;0.40;;;0.40;;
5650;SDS011;40241;52.684;9.758;2024-02-26T13:36:21;0.80;;;0.80;;
5650;SDS011;40241;52.684;9.758;2024-02-26T13:38:53;0.60;;;0.53;;
5650;SDS011;40241;52.684;9.758;2024-02-26T13:41:20;0.63;;;0.60;;
5650;SDS011;40241;52.684;9.758;2024-02-26T13:43:46;0.50;;;0.40;;
5650;SDS011;40241;52.684;9.758;2024-02-26T13:46:12;0.80;;;0.57;;
5650;SDS011;40241;52.684;9.758;2024-02-26T13:48:39;1.00;;;0.80;;
5650;SDS011;40241;52.684;9.758;2024-02-26T13:51:04;0.83;;;0.60;;
5650;SDS011;40241;52.684;9.758;2024-02-26T13:53:30;0.60;;;0.60;;
5650;SDS011;40241;52.684;9.758;2024-02-26T13:55:55;0.70;;;0.57;;
5650;SDS011;40241;52.684;9.758;2024-02-26T13:58:21;0.70;;;0.70;;
5650;SDS011;40241;52.684;9.758;2024-02-26T14:00:48;1.00;;;0.70;;
5650;SDS011;40241;52.684;9.758;2024-02-26T14:03:14;0.50;;;0.40;;
5650;SDS011;40241;52.684;9.758;2024-02-26T14:05:42;0.80;;;0.80;;
5650;SDS011;40241;52.684;9.758;2024-02-26T14:08:07;0.70;;;0.70;;
5650;SDS011;40241;52.684;9.758;2024-02-26T14:10:33;0.83;;;0.83;;
5650;SDS011;40241;52.684;9.758;2024-02-26T14:12:59;0.80;;;0.70;;
5650;SDS011;40241;52.684;9.758;2024-02-26T14:15:25;0.67;;;0.67;;
5650;SDS011;40241;52.684;9.758;2024-02-26T14:17:53;0.60;;;0.47;;
5650;SDS011;40241;52.684;9.758;2024-02-26T14:20:21;0.70;;;0.70;;
5650;SDS011;40241;52.684;9.758;2024-02-26T14:22:48;0.87;;;0.87;;
5650;SDS011;40241;52.684;9.758;2024-02-26T14:25:14;0.90;;;0.67;;
5650;SDS011;40241;52.684;9.758;2024-02-26T14:27:39;0.70;;;0.70;;
5650;SDS011;40241;52.684;9.758;2024-02-26T14:30:05;0.80;;;0.80;;
5650;SDS011;40241;52.684;9.758;2024-02-26T14:32:31;0.57;;;0.57;;
5650;SDS011;40241;52.684;9.758;2024-02-26T14:35:00;0.77;;;0.70;;
5650;SDS011;40241;52.684;9.758;2024-02-26T14:37:25;0.70;;;0.70;;
5650;SDS011;40241;52.684;9.758;2024-02-26T14:39:50;0.70;;;0.70;;
5650;SDS011;40241;52.684;9.758;2024-02-26T14:42:17;0.60;;;0.50;;
5650;SDS011;40241;52.684;9.758;2024-02-26T14:44:43;1.17;;;0.67;;
5650;SDS011;40241;52.684;9.758;2024-02-26T14:47:09;0.70;;;0.60;;
5650;SDS011;40241;52.684;9.758;2024-02-26T14:49:34;0.63;;;0.63;;
5650;SDS011;40241;52.684;9.758;2024-02-26T14:51:59;0.60;;;0.60;;
5650;SDS011;40241;52.684;9.758;2024-02-26T14:54:25;0.97;;;0.70;;
5650;SDS011;40241;52.684;9.758;2024-02-26T14:56:50;0.73;;;0.63;;
5650;SDS011;40241;52.684;9.758;2024-02-26T14:59:16;1.00;;;0.50;;
5650;SDS011;40241;52.684;9.758;2024-02-26T15:01:41;0.70;;;0.70;;
5650;SDS011;40241;52.684;9.758;2024-02-26T15:04:06;0.70;;;0.70;;
5650;SDS011;40241;52.684;9.758;2024-02-26T15:06:31;1.00;;;1.00;;
5650;SDS011;40241;52.684;9.758;2024-02-26T15:08:57;0.60;;;0.50;;